Time;durP1;ratioP1;P1;durP2;ratioP2;P2;SDS_P1;SDS_P2;PMS_P1;PMS_P2;Temp;Humidity;BMP_temperature;BMP_pressure;BME280_temperature;BME280_humidity;BME280_pressure;Samples;Min_cycle;Max_cycle;Signal;HPM_P1;HPM_P2
2021/12/09 00:00:15;;;;;;;;;4.50;0.25;;;;;5.22;87.30;99875.09;5034103;28;45510;-73
2021/12/09 00:02:40;;;;;;;;;2.50;1.00;;;;;5.09;87.08;99848.31;5034277;28;45426;-72
2021/12/09 00:05:09;;;;;;;;;3.00;1.00;;;;;5.27;87.32;99873.28;5033638;28;45577;-72
2021/12/09 00:07:34;;;;;;;;;2.50;1.00;;;;;5.19;87.34;99862.94;5033638;28;45518;-72
2021/12/09 00:10:02;;;;;;;;;0.75;0.75;;;;;5.28;87.04;99877.59;5033853;28;45477;-72
2021/12/09 00:12:28;;;;;;;;;1.50;1.00;;;;;5.19;87.35;99860.34;5034254;28;45842;-73
2021/12/09 00:14:53;;;;;;;;;1.50;0.00;;;;;5.36;86.87;99877.50;5033848;28;47295;-73
2021/12/09 00:17:18;;;;;;;;;2.25;1.00;;;;;5.34;86.98;99861.00;5033781;28;45380;-74
2021/12/09 00:19:44;;;;;;;;;2.50;0.00;;;;;5.44;87.05;99869.53;5033591;28;45425;-74
2021/12/09 00:22:12;;;;;;;;;2.75;0.00;;;;;5.41;86.87;99854.78;5033952;28;45702;-73
2021/12/09 00:24:38;;;;;;;;;0.75;0.00;;;;;5.51;86.94;99868.56;5033915;28;46292;-73
2021/12/09 00:27:04;;;;;;;;;1.00;1.00;;;;;5.51;87.22;99872.03;5033694;28;45865;-72
2021/12/09 00:29:29;;;;;;;;;0.00;0.00;;;;;5.41;87.40;99847.81;5015882;28;45510;-72
2021/12/09 00:31:55;;;;;;;;;2.00;0.50;;;;;5.52;87.28;99865.06;5033523;28;46090;-73
2021/12/09 00:34:29;;;;;;;;;5.50;1.00;;;;;5.55;87.11;99865.00;5033544;28;47299;-73
2021/12/09 00:36:59;;;;;;;;;2.00;0.50;;;;;5.40;86.81;99840.00;5033669;28;45515;-72
2021/12/09 00:39:24;;;;;;;;;3.00;0.00;;;;;5.53;87.05;99877.22;5033483;28;45631;-72
2021/12/09 00:41:50;;;;;;;;;1.00;1.00;;;;;5.54;87.26;99878.94;5034021;28;45881;-73
2021/12/09 00:44:15;;;;;;;;;1.00;1.00;;;;;5.37;87.33;99855.72;5033353;28;46195;-73
2021/12/09 00:46:41;;;;;;;;;4.00;1.75;;;;;5.47;86.97;99875.56;5033049;28;45478;-73
2021/12/09 00:49:07;;;;;;;;;2.50;1.00;;;;;5.20;87.13;99830.75;5033353;28;45401;-73
2021/12/09 00:51:33;;;;;;;;;1.25;1.25;;;;;5.38;87.28;99876.56;5033642;28;45770;-72
2021/12/09 00:53:58;;;;;;;;;5.00;1.00;;;;;5.42;86.91;99890.44;5032878;28;45580;-73
2021/12/09 00:56:24;;;;;;;;;2.75;0.00;;;;;5.13;86.86;99855.22;5033201;28;45493;-73
2021/12/09 00:58:50;;;;;;;;;1.00;1.00;;;;;5.31;86.87;99880.16;5033458;28;45818;-72
2021/12/09 01:01:17;;;;;;;;;2.00;1.00;;;;;5.31;86.98;99890.59;5033721;28;45779;-73
2021/12/09 01:03:43;;;;;;;;;2.00;1.50;;;;;5.27;87.43;99888.06;5032797;28;45602;-73
2021/12/09 01:06:10;;;;;;;;;4.00;1.00;;;;;5.24;87.18;99891.56;5032924;28;45417;-74
2021/12/09 01:08:36;;;;;;;;;0.25;0.25;;;;;5.32;87.68;99907.16;5033309;28;45435;-72
2021/12/09 01:11:03;;;;;;;;;0.50;0.25;;;;;5.30;87.87;99911.50;5033268;28;45628;-73
2021/12/09 01:13:28;;;;;;;;;1.50;0.00;;;;;5.27;87.61;99911.56;5033275;28;45863;-72
2021/12/09 01:15:54;;;;;;;;;4.25;1.00;;;;;5.30;87.89;99919.34;5033106;28;45553;-72
2021/12/09 01:18:19;;;;;;;;;2.00;0.00;;;;;5.28;87.96;99918.50;5033147;28;45505;-73
2021/12/09 01:20:45;;;;;;;;;1.75;1.75;;;;;5.26;87.39;99920.25;5033195;28;45381;-73
2021/12/09 01:23:11;;;;;;;;;2.25;2.25;;;;;5.29;87.85;99926.31;5032920;28;46440;-74
2021/12/09 01:25:37;;;;;;;;;3.75;0.50;;;;;5.39;87.60;99948.78;5033065;28;45860;-73
2021/12/09 01:28:21;;;;;;;;;0.25;0.25;;;;;5.34;87.22;99941.91;5033119;28;45436;-75
2021/12/09 01:30:49;;;;;;;;;1.50;0.75;;;;;5.44;86.73;99946.09;5033095;28;45595;-74
2021/12/09 01:33:15;;;;;;;;;3.75;1.00;;;;;5.27;86.89;99925.50;5032344;28;46398;-73
2021/12/09 01:35:47;;;;;;;;;1.00;1.00;;;;;5.52;86.91;99964.28;5032797;28;45423;-74
2021/12/09 01:38:14;;;;;;;;;4.75;2.00;;;;;5.57;86.95;99972.91;5033117;28;45444;-73
2021/12/09 01:40:41;;;;;;;;;2.00;0.00;;;;;5.56;86.45;99974.66;5033035;28;45561;-73
2021/12/09 01:43:07;;;;;;;;;2.00;2.00;;;;;5.61;86.71;99974.59;5032702;28;46176;-73
2021/12/09 01:45:32;;;;;;;;;1.50;1.50;;;;;5.55;86.70;99962.47;5035694;28;45520;-75
2021/12/09 01:47:58;;;;;;;;;3.25;1.00;;;;;5.52;86.83;99959.06;5036223;28;45441;-73
2021/12/09 01:50:24;;;;;;;;;1.25;1.25;;;;;5.50;86.71;99955.59;5036259;28;45535;-73
2021/12/09 01:52:51;;;;;;;;;2.75;0.00;;;;;5.52;87.10;99952.09;5035815;28;46673;-73
2021/12/09 01:55:18;;;;;;;;;1.75;0.00;;;;;5.62;86.63;99965.88;5036223;28;45434;-73
2021/12/09 01:57:47;;;;;;;;;1.25;1.25;;;;;5.64;86.53;99955.41;5036244;28;45627;-73
2021/12/09 02:00:16;;;;;;;;;1.50;1.00;;;;;5.62;86.47;99962.38;5036343;28;45477;-73
2021/12/09 02:02:42;;;;;;;;;2.50;1.00;;;;;5.65;85.94;99964.94;5035822;28;46966;-75
2021/12/09 02:05:11;;;;;;;;;3.50;1.00;;;;;5.62;86.33;99965.00;5035774;28;45423;-72
2021/12/09 02:07:37;;;;;;;;;2.00;2.00;;;;;5.56;86.37;99955.50;5046307;28;45726;-73
2021/12/09 02:10:10;;;;;;;;;3.00;1.50;;;;;5.63;86.66;99964.97;5056353;28;45581;-73
2021/12/09 02:12:35;;;;;;;;;3.25;2.00;;;;;5.67;86.92;99968.41;5055687;28;45680;-74
2021/12/09 02:15:02;;;;;;;;;3.00;1.00;;;;;5.61;87.12;99956.31;5055999;28;45384;-73
2021/12/09 02:17:28;;;;;;;;;1.25;1.00;;;;;5.52;87.06;99946.88;5055998;28;45464;-73
2021/12/09 02:19:57;;;;;;;;;3.25;1.00;;;;;5.64;86.85;99965.84;5055883;28;45491;-73
2021/12/09 02:22:22;;;;;;;;;1.25;1.25;;;;;5.53;87.01;99947.72;5055937;28;46229;-76
2021/12/09 02:24:48;;;;;;;;;2.00;1.00;;;;;5.64;87.04;99964.09;5055731;28;45460;-73
2021/12/09 02:27:13;;;;;;;;;2.00;1.00;;;;;5.53;87.10;99953.81;5055932;28;45456;-73
2021/12/09 02:29:41;;;;;;;;;4.00;2.00;;;;;5.54;86.98;99965.13;5045599;28;45714;-74
2021/12/09 02:32:07;;;;;;;;;3.00;1.00;;;;;5.58;87.29;99969.41;5035276;28;47471;-73
2021/12/09 02:34:33;;;;;;;;;0.00;0.00;;;;;5.51;87.56;99954.72;5035316;28;45576;-72
2021/12/09 02:36:58;;;;;;;;;0.00;0.00;;;;;5.54;87.85;99965.13;5035523;28;45536;-73
2021/12/09 02:39:24;;;;;;;;;4.00;1.00;;;;;5.56;87.57;99963.31;5035735;28;45495;-73
2021/12/09 02:41:50;;;;;;;;;2.50;2.00;;;;;5.57;87.44;99973.75;5035248;28;46636;-74
2021/12/09 02:44:19;;;;;;;;;3.00;2.00;;;;;5.54;87.55;99965.97;5035212;28;45361;-72
2021/12/09 02:46:49;;;;;;;;;2.00;1.50;;;;;5.46;88.21;99946.06;5035412;28;45393;-72
2021/12/09 02:49:18;;;;;;;;;3.00;1.00;;;;;5.35;88.02;99923.59;5035341;28;45634;-73
2021/12/09 02:51:46;;;;;;;;;2.00;1.00;;;;;5.48;87.70;99953.00;5034978;28;45489;-72
2021/12/09 02:54:15;;;;;;;;;5.00;2.00;;;;;5.46;88.13;99951.28;5035159;28;45515;-73
2021/12/09 02:56:43;;;;;;;;;1.00;1.00;;;;;5.40;88.19;99958.34;5035346;28;45585;-72
2021/12/09 02:59:09;;;;;;;;;3.50;1.00;;;;;5.28;88.31;99945.47;5035360;28;45455;-73
2021/12/09 03:01:46;;;;;;;;;5.75;2.25;;;;;5.32;88.99;99946.28;5035068;28;47044;-74
2021/12/09 03:04:11;;;;;;;;;2.00;1.50;;;;;5.31;88.54;99940.19;5034840;28;45563;-74
2021/12/09 03:06:40;;;;;;;;;5.00;2.75;;;;;5.16;89.03;99922.16;5034812;28;45488;-73
2021/12/09 03:09:14;;;;;;;;;1.75;1.75;;;;;5.22;88.83;99935.13;5035593;28;45759;-74
2021/12/09 03:11:41;;;;;;;;;7.75;6.00;;;;;5.35;88.72;99954.06;5034557;28;46275;-74
2021/12/09 03:14:07;;;;;;;;;6.50;3.00;;;;;5.39;88.84;99958.38;5034623;28;45468;-75
2021/12/09 03:16:33;;;;;;;;;4.25;3.00;;;;;5.37;88.85;99947.06;5035019;28;45512;-76
2021/12/09 03:19:03;;;;;;;;;1.75;1.25;;;;;5.41;88.81;99957.44;5035195;28;45698;-75
2021/12/09 03:21:34;;;;;;;;;5.75;2.00;;;;;5.45;88.37;99960.03;5034304;28;46362;-76
2021/12/09 03:24:02;;;;;;;;;2.50;1.00;;;;;5.46;88.96;99962.63;5034782;28;45858;-75
2021/12/09 03:26:33;;;;;;;;;3.00;2.00;;;;;5.37;88.47;99947.97;5034585;28;45570;-75
2021/12/09 03:29:05;;;;;;;;;4.25;2.00;;;;;5.50;88.19;99964.28;5034657;28;45515;-76
2021/12/09 03:31:30;;;;;;;;;2.25;2.25;;;;;5.45;88.35;99957.44;5034638;28;46430;-74
2021/12/09 03:33:57;;;;;;;;;4.50;1.00;;;;;5.52;88.43;99970.34;5034345;28;45448;-76
2021/12/09 03:36:27;;;;;;;;;1.00;1.00;;;;;5.53;88.60;99969.47;5034370;28;45527;-76
2021/12/09 03:38:58;;;;;;;;;1.00;1.00;;;;;5.49;88.49;99953.88;5034786;28;45524;-76
2021/12/09 03:41:24;;;;;;;;;1.00;1.00;;;;;5.55;88.43;99969.47;5034302;28;45456;-76
2021/12/09 03:43:50;;;;;;;;;3.50;1.00;;;;;5.56;88.25;99972.03;5034514;28;45440;-75
2021/12/09 03:46:15;;;;;;;;;2.25;1.00;;;;;5.53;88.88;99974.72;5034273;28;45441;-76
2021/12/09 03:48:41;;;;;;;;;1.00;1.00;;;;;5.33;88.30;99942.78;5034524;28;45418;-76
2021/12/09 03:51:06;;;;;;;;;1.00;1.00;;;;;5.31;88.54;99948.03;5034107;28;47617;-75
2021/12/09 03:53:31;;;;;;;;;2.75;2.75;;;;;5.32;88.97;99956.75;5034228;28;45435;-75
2021/12/09 03:55:57;;;;;;;;;1.00;1.00;;;;;5.42;88.67;99971.38;5034150;28;45956;-75
2021/12/09 03:58:23;;;;;;;;;2.00;0.75;;;;;5.49;88.97;99975.63;5034658;28;45800;-75
2021/12/09 04:00:49;;;;;;;;;3.75;2.25;;;;;5.46;88.73;99973.06;5034115;28;46489;-75
2021/12/09 04:03:17;;;;;;;;;2.00;0.00;;;;;5.50;88.82;99972.13;5033357;28;45401;-76
2021/12/09 04:05:43;;;;;;;;;0.25;0.25;;;;;5.52;89.19;99983.41;5033941;28;45676;-77
2021/12/09 04:08:08;;;;;;;;;1.50;1.25;;;;;5.46;88.87;99970.47;5033409;28;45370;-78
2021/12/09 04:10:34;;;;;;;;;2.00;1.00;;;;;5.53;89.20;99987.75;5034078;28;46659;-76
2021/12/09 04:13:00;;;;;;;;;3.00;2.00;;;;;5.54;89.10;99983.41;5033419;28;45654;-80
2021/12/09 04:15:26;;;;;;;;;5.00;2.00;;;;;5.30;89.82;99948.03;5034070;28;45477;-80
2021/12/09 04:17:52;;;;;;;;;1.00;1.00;;;;;5.32;89.46;99956.75;5034363;28;45495;-83
2021/12/09 04:20:18;;;;;;;;;2.50;1.25;;;;;5.57;89.56;99992.03;5032818;28;45441;-79
2021/12/09 04:22:49;;;;;;;;;6.00;1.75;;;;;5.57;89.40;99989.41;5033817;28;45488;-80
2021/12/09 04:25:22;;;;;;;;;0.75;0.75;;;;;5.48;89.48;99967.81;5033900;28;45538;-81
2021/12/09 04:27:50;;;;;;;;;2.75;1.00;;;;;5.44;90.26;99963.53;5033969;28;45415;-78
2021/12/09 04:30:16;;;;;;;;;7.00;2.50;;;;;5.57;89.97;99984.19;5033675;28;47455;-78
2021/12/09 04:32:42;;;;;;;;;3.00;1.00;;;;;5.55;90.74;99980.75;5033604;28;45442;-78
2021/12/09 04:35:10;;;;;;;;;3.00;1.25;;;;;5.57;89.77;99991.19;5033779;28;45459;-80
2021/12/09 04:37:36;;;;;;;;;2.00;1.75;;;;;5.51;89.92;99970.38;5034011;28;45518;-80
2021/12/09 04:40:04;;;;;;;;;4.00;2.00;;;;;5.50;90.79;99982.56;5033438;28;46159;-76
2021/12/09 04:42:29;;;;;;;;;2.00;2.00;;;;;5.53;90.18;99981.66;5033761;28;45413;-79
2021/12/09 04:44:55;;;;;;;;;2.75;2.50;;;;;5.55;90.08;99988.59;5033727;28;45326;-77
2021/12/09 04:47:20;;;;;;;;;4.00;4.00;;;;;5.51;90.77;99986.06;5033754;28;45310;-79
2021/12/09 04:49:46;;;;;;;;;2.00;2.00;;;;;5.55;90.14;99991.19;5033420;28;45474;-79
2021/12/09 04:52:12;;;;;;;;;4.00;4.00;;;;;5.49;90.86;99987.81;5033303;28;45735;-79
2021/12/09 04:54:41;;;;;;;;;3.00;3.00;;;;;5.53;90.54;99992.97;5033503;28;45476;-80
2021/12/09 04:57:07;;;;;;;;;4.00;3.00;;;;;5.51;89.60;99999.09;5033741;28;45401;-79
2021/12/09 04:59:32;;;;;;;;;4.50;2.00;;;;;5.44;90.15;99979.19;5033217;28;45596;-80
2021/12/09 05:01:58;;;;;;;;;7.75;2.75;;;;;5.45;90.22;99992.22;5033324;28;45618;-80
2021/12/09 05:04:23;;;;;;;;;1.00;1.00;;;;;5.45;90.41;99994.84;5033423;28;45415;-77
2021/12/09 05:06:49;;;;;;;;;3.50;3.00;;;;;5.43;90.19;99988.75;5037085;28;45497;-81
2021/12/09 05:09:18;;;;;;;;;3.00;3.00;;;;;5.54;89.61;100001.66;5053151;28;46268;-78
2021/12/09 05:14:12;;;;;;;;;6.50;5.00;;;;;5.53;89.50;100006.03;5053519;28;45460;-79
2021/12/09 05:16:38;;;;;;;;;3.00;3.00;;;;;5.49;89.36;99993.03;5046938;28;45464;-83
2021/12/09 05:19:04;;;;;;;;;0.00;0.00;;;;;5.50;89.93;100011.28;5034067;28;47112;-81
2021/12/09 05:21:36;;;;;;;;;2.00;1.75;;;;;5.49;90.53;100006.06;5036624;28;45400;-79
2021/12/09 05:24:04;;;;;;;;;3.50;2.00;;;;;5.54;89.78;100004.28;5036446;28;45553;-79
2021/12/09 05:26:36;;;;;;;;;2.25;2.00;;;;;5.54;89.70;100004.28;5037157;28;45951;-77
2021/12/09 05:29:02;;;;;;;;;1.00;1.00;;;;;5.48;89.74;99999.16;5036734;28;46220;-77
2021/12/09 05:34:14;;;;;;;;;4.25;2.50;;;;;5.54;89.66;100009.50;5036599;28;45399;-75
2021/12/09 05:36:39;;;;;;;;;3.00;2.50;;;;;5.57;89.72;100017.28;5036837;28;45493;-74
2021/12/09 05:39:08;;;;;;;;;7.50;2.00;;;;;5.46;89.86;100000.91;5036146;28;46418;-76
2021/12/09 05:41:34;;;;;;;;;3.50;1.25;;;;;5.48;90.34;100006.97;5036315;28;45450;-76
2021/12/09 05:44:04;;;;;;;;;9.00;9.00;;;;;5.53;90.25;100016.47;5018282;28;45509;-75
2021/12/09 05:46:30;;;;;;;;;5.00;3.00;;;;;5.47;91.06;100011.31;5036488;28;45417;-75
2021/12/09 05:48:55;;;;;;;;;2.00;2.00;;;;;5.45;90.59;100007.03;5035994;28;45509;-76
2021/12/09 05:51:25;;;;;;;;;18.33;17.00;;;;;5.27;90.35;99979.41;5035820;28;45480;-74
2021/12/09 05:53:52;;;;;;;;;8.25;6.00;;;;;5.54;91.05;100020.78;5036175;28;45455;-75
2021/12/09 05:56:18;;;;;;;;;0.75;0.50;;;;;5.51;91.61;100020.84;5036521;28;45461;-74
2021/12/09 05:58:44;;;;;;;;;3.25;2.25;;;;;5.52;91.41;100019.13;5035958;28;46279;-83
2021/12/09 06:01:09;;;;;;;;;1.75;1.75;;;;;5.37;92.00;100000.16;5035950;28;45432;-80
2021/12/09 06:03:35;;;;;;;;;2.75;1.50;;;;;5.45;91.40;100009.66;5036733;28;45476;-84
2021/12/09 06:06:01;;;;;;;;;8.75;8.50;;;;;5.51;91.78;100020.84;5037138;28;45446;-87
2021/12/09 06:08:27;;;;;;;;;7.75;4.00;;;;;5.51;91.47;100013.00;5053375;28;45537;-83
2021/12/09 06:10:53;;;;;;;;;6.75;3.25;;;;;5.56;92.39;100021.66;5049660;28;45583;-83
2021/12/09 06:13:18;;;;;;;;;2.75;2.25;;;;;5.53;92.35;100023.44;5035505;28;45390;-80
2021/12/09 06:15:45;;;;;;;;;4.00;4.00;;;;;5.53;92.41;100013.00;5034927;28;45456;-78
2021/12/09 06:18:11;;;;;;;;;0.50;0.50;;;;;5.46;92.14;100012.22;5035026;28;46432;-82
2021/12/09 06:20:37;;;;;;;;;3.00;3.00;;;;;5.35;92.70;99991.47;5034825;28;45540;-79
2021/12/09 06:23:02;;;;;;;;;3.25;2.25;;;;;5.48;93.28;100018.28;5035895;28;45380;-82
2021/12/09 06:25:28;;;;;;;;;7.50;6.25;;;;;5.45;93.10;100012.25;5035585;28;45447;-80
2021/12/09 06:27:55;;;;;;;;;8.25;5.25;;;;;5.44;92.56;100006.16;5034371;28;45561;-80
2021/12/09 06:30:22;;;;;;;;;7.75;3.00;;;;;5.49;93.42;100032.19;5034177;28;45444;-78
2021/12/09 06:32:47;;;;;;;;;3.00;2.00;;;;;5.52;93.68;100030.41;5034370;28;45595;-78
2021/12/09 06:35:14;;;;;;;;;3.00;2.75;;;;;5.55;93.50;100030.38;5034859;28;45762;-78
2021/12/09 06:37:43;;;;;;;;;4.00;3.00;;;;;5.39;93.31;100003.59;5034163;28;46546;-77
2021/12/09 06:40:13;;;;;;;;;4.00;2.00;;;;;5.55;93.35;100030.38;5034297;28;45369;-76
2021/12/09 06:42:39;;;;;;;;;4.50;2.75;;;;;5.49;93.09;100020.00;5034465;28;45869;-75
2021/12/09 06:45:05;;;;;;;;;21.00;20.00;;;;;5.55;93.97;100025.16;5034330;28;45476;-75
2021/12/09 06:47:31;;;;;;;;;5.50;3.75;;;;;5.51;93.54;100020.84;5033250;28;45876;-76
2021/12/09 06:49:57;;;;;;;;;3.00;1.25;;;;;5.44;93.46;100000.06;5031190;28;45531;-75
2021/12/09 06:52:22;;;;;;;;;4.00;2.00;;;;;5.58;93.30;100032.94;5034029;28;45785;-75
2021/12/09 06:54:47;;;;;;;;;3.00;3.00;;;;;5.55;93.32;100019.91;5034465;28;45374;-77
2021/12/09 06:57:13;;;;;;;;;7.75;4.00;;;;;5.51;93.32;100020.84;5033741;28;46517;-75
2021/12/09 06:59:38;;;;;;;;;6.25;5.25;;;;;5.57;93.47;100031.19;5034017;28;45477;-76
2021/12/09 07:02:04;;;;;;;;;6.50;3.00;;;;;5.53;93.30;100020.81;5033934;28;45407;-75
2021/12/09 07:04:29;;;;;;;;;3.00;3.00;;;;;5.54;93.77;100023.41;5034303;28;45384;-75
2021/12/09 07:06:55;;;;;;;;;5.00;3.00;;;;;5.54;94.05;100028.63;5034385;28;45600;-79
2021/12/09 07:09:22;;;;;;;;;6.75;6.75;;;;;5.53;93.80;100031.28;5033750;28;45411;-71
2021/12/09 07:11:51;;;;;;;;;3.00;2.75;;;;;5.59;93.71;100025.94;5016054;28;45396;-72
2021/12/09 07:14:19;;;;;;;;;2.00;2.00;;;;;5.53;93.29;100024.31;4990920;28;1247364;-71
2021/12/09 07:16:45;;;;;;;;;30.33;30.33;;;;;5.60;93.53;100032.91;5034244;28;46319;-72
2021/12/09 07:19:11;;;;;;;;;30.33;25.67;;;;;5.63;93.64;100040.69;5034611;28;45421;-70
2021/12/09 07:21:36;;;;;;;;;7.00;7.00;;;;;5.59;93.61;100028.56;5034633;28;45441;-75
2021/12/09 07:24:02;;;;;;;;;4.00;4.00;;;;;5.55;93.60;100022.53;5034722;28;45625;-75
2021/12/09 07:26:29;;;;;;;;;11.33;11.00;;;;;5.54;94.11;100030.41;5033926;28;45473;-75
2021/12/09 07:28:55;;;;;;;;;6.50;4.25;;;;;5.24;93.85;99985.53;5034685;28;45828;-72
2021/12/09 07:31:21;;;;;;;;;5.75;4.50;;;;;5.43;94.01;100012.25;5034797;28;45508;-72
2021/12/09 07:33:46;;;;;;;;;4.00;4.00;;;;;5.47;94.25;100023.53;5034620;28;45454;-73
2021/12/09 07:36:11;;;;;;;;;4.75;4.75;;;;;5.32;94.79;100014.16;5034270;28;46340;-72
2021/12/09 07:38:37;;;;;;;;;11.67;11.67;;;;;5.34;94.62;100023.66;5034530;28;45880;-73
2021/12/09 07:41:02;;;;;;;;;8.25;6.00;;;;;5.40;94.64;100035.78;5033881;28;45555;-73
2021/12/09 07:43:28;;;;;;;;;5.00;5.00;;;;;5.39;94.88;100039.31;5032280;28;45513;-68
2021/12/09 07:45:54;;;;;;;;;7.75;5.75;;;;;5.40;95.30;100035.78;5033577;28;46148;-69
2021/12/09 07:48:19;;;;;;;;;11.25;10.25;;;;;5.49;95.20;100056.56;5033304;28;45354;-72
2021/12/09 07:50:45;;;;;;;;;4.25;3.50;;;;;5.47;94.81;100045.25;5034379;28;45453;-72
2021/12/09 07:53:10;;;;;;;;;4.50;3.00;;;;;5.53;94.46;100055.66;5034219;28;45405;-72
2021/12/09 07:55:37;;;;;;;;;7.75;6.00;;;;;5.50;94.61;100047.81;5034088;28;46460;-72
2021/12/09 07:58:02;;;;;;;;;4.00;2.25;;;;;5.56;94.63;100054.72;5033688;28;45405;-72
2021/12/09 08:00:31;;;;;;;;;15.67;15.00;;;;;5.62;94.76;100056.38;5033831;28;45425;-72
2021/12/09 08:02:59;;;;;;;;;7.50;7.50;;;;;5.56;94.55;100047.78;5034068;28;45522;-72
2021/12/09 08:05:27;;;;;;;;;7.25;6.00;;;;;5.56;93.96;100045.16;5033573;28;46653;-72
2021/12/09 08:07:52;;;;;;;;;4.00;4.00;;;;;5.68;94.13;100057.19;5037969;28;45476;-72
2021/12/09 08:10:22;;;;;;;;;4.00;4.00;;;;;5.65;94.30;100056.34;5033765;28;45471;-72
2021/12/09 08:12:48;;;;;;;;;16.25;11.50;;;;;5.72;94.00;100071.03;5010742;28;45496;-73
2021/12/09 08:15:15;;;;;;;;;3.25;3.00;;;;;5.67;93.71;100052.84;5033729;28;45613;-72
2021/12/09 08:20:13;;;;;;;;;7.50;4.00;;;;;5.78;93.60;100072.72;5033251;28;45445;-72
2021/12/09 08:22:38;;;;;;;;;4.00;4.00;;;;;5.75;93.99;100076.22;5033778;28;45571;-72
2021/12/09 08:25:08;;;;;;;;;6.50;3.00;;;;;5.80;93.42;100084.03;5033284;28;45981;-73
2021/12/09 08:27:35;;;;;;;;;7.75;4.25;;;;;5.75;93.76;100074.50;5033499;28;45491;-73
2021/12/09 08:30:04;;;;;;;;;14.75;12.50;;;;;5.77;93.08;100082.31;5033596;28;45794;-73
2021/12/09 08:32:31;;;;;;;;;9.75;7.25;;;;;5.72;93.55;100084.09;5033540;28;45482;-73
2021/12/09 08:34:57;;;;;;;;;9.00;6.50;;;;;5.79;93.76;100095.34;5032721;28;45667;-72
2021/12/09 08:37:22;;;;;;;;;11.75;9.00;;;;;5.75;93.93;100061.44;5033174;28;45602;-72
2021/12/09 08:39:48;;;;;;;;;10.00;9.00;;;;;5.98;92.89;100089.00;5033275;28;45540;-73
2021/12/09 08:42:14;;;;;;;;;11.00;8.75;;;;;6.13;91.65;100092.28;5033768;28;45509;-72
2021/12/09 08:44:40;;;;;;;;;13.00;13.00;;;;;6.15;91.88;100093.13;5032851;28;46796;-71
2021/12/09 08:47:06;;;;;;;;;11.75;7.25;;;;;6.13;91.56;100087.03;5031849;28;45453;-72
2021/12/09 08:49:32;;;;;;;;;9.25;6.50;;;;;6.22;91.34;100092.16;5032704;28;45472;-72
2021/12/09 08:51:57;;;;;;;;;7.00;6.75;;;;;6.26;91.11;100083.38;5032963;28;45421;-72
2021/12/09 08:54:23;;;;;;;;;5.75;3.75;;;;;6.34;90.78;100083.25;5032716;28;46231;-72
2021/12/09 08:56:51;;;;;;;;;2.00;2.00;;;;;6.47;90.25;100092.59;5032226;28;45425;-71
2021/12/09 08:59:21;;;;;;;;;7.25;3.50;;;;;6.47;89.72;100084.75;5032234;28;45572;-72
2021/12/09 09:01:47;;;;;;;;;5.25;3.25;;;;;6.61;89.46;100093.25;5033157;28;45766;-71
2021/12/09 09:04:12;;;;;;;;;13.00;9.00;;;;;6.59;88.82;100097.66;5032556;28;45571;-71
2021/12/09 09:06:52;;;;;;;;;4.00;4.00;;;;;6.57;89.48;100103.78;5031947;28;45485;-72
2021/12/09 09:09:18;;;;;;;;;10.50;9.00;;;;;6.54;89.46;100096.84;5032658;28;45482;-72
2021/12/09 09:11:43;;;;;;;;;9.00;6.75;;;;;6.47;88.73;100089.13;5032614;28;45738;-71
2021/12/09 09:14:09;;;;;;;;;8.50;5.75;;;;;6.50;89.39;100112.63;5034956;28;47327;-72
2021/12/09 09:16:34;;;;;;;;;8.00;6.50;;;;;6.47;89.47;100107.44;5032763;28;45480;-73
2021/12/09 09:19:00;;;;;;;;;8.25;6.50;;;;;6.44;89.99;100109.22;5033057;28;45476;-73
2021/12/09 09:21:28;;;;;;;;;4.50;4.50;;;;;6.42;89.60;100103.16;5033220;28;45479;-73
2021/12/09 09:23:54;;;;;;;;;7.00;5.25;;;;;6.49;89.70;100119.63;5032595;28;46620;-72
2021/12/09 09:26:19;;;;;;;;;5.00;5.00;;;;;6.46;90.01;100119.63;5032502;28;45397;-73
2021/12/09 09:28:45;;;;;;;;;14.67;13.67;;;;;6.41;90.23;100114.50;5032420;28;45774;-72
2021/12/09 09:31:10;;;;;;;;;4.75;3.50;;;;;6.45;90.11;100117.94;5033047;28;45390;-72
2021/12/09 09:33:36;;;;;;;;;6.00;4.00;;;;;6.44;90.08;100124.03;5032485;28;47310;-71
2021/12/09 09:36:02;;;;;;;;;8.00;5.25;;;;;6.50;90.42;100129.16;5032388;28;45446;-72
2021/12/09 09:38:27;;;;;;;;;4.75;3.50;;;;;6.54;90.07;100135.22;5031951;28;46044;-72
2021/12/09 09:41:08;;;;;;;;;7.75;3.75;;;;;6.58;89.39;100132.53;5032792;28;45546;-72
2021/12/09 09:46:13;;;;;;;;;8.00;5.25;;;;;6.64;89.88;100128.97;5032574;28;45835;-72
2021/12/09 09:48:40;;;;;;;;;5.25;3.50;;;;;6.64;89.90;100123.72;5034014;28;45526;-73
2021/12/09 09:51:06;;;;;;;;;8.00;5.00;;;;;6.83;89.59;100139.97;5032018;28;45493;-73
2021/12/09 09:53:34;;;;;;;;;9.00;7.00;;;;;6.99;89.98;100147.56;5032574;28;46803;-74
2021/12/09 09:56:00;;;;;;;;;4.00;4.00;;;;;7.02;89.23;100126.56;5038370;28;45572;-73
2021/12/09 09:58:25;;;;;;;;;6.25;6.25;;;;;7.18;88.58;100148.94;5045885;28;45442;-72
2021/12/09 10:01:21;;;;;;;;;5.25;4.00;;;;;7.25;88.26;100144.47;5033709;28;45624;-73
2021/12/09 10:04:44;;;;;;;;;8.00;8.00;;;;;6.24;87.58;99978.81;5030422;28;45675;-74
2021/12/09 10:07:11;;;;;;;;;7.25;5.50;;;;;6.89;87.50;100073.56;5006569;28;45473;-74
2021/12/09 10:09:37;;;;;;;;;8.25;6.25;;;;;7.29;87.78;100140.88;5035732;28;45777;-73
2021/12/09 10:12:03;;;;;;;;;6.75;4.75;;;;;7.37;87.92;100149.44;5036108;28;45416;-73
2021/12/09 10:14:34;;;;;;;;;6.75;4.25;;;;;7.37;87.96;100143.38;5034882;28;45493;-73
2021/12/09 10:17:23;;;;;;;;;5.00;3.25;;;;;7.45;87.56;100151.91;5035734;28;45765;-74
2021/12/09 10:19:51;;;;;;;;;9.25;7.50;;;;;7.53;87.92;100139.53;5034955;28;45589;-74
2021/12/09 10:22:20;;;;;;;;;12.25;8.00;;;;;7.50;87.88;100129.13;5035553;28;45794;-76
2021/12/09 10:24:48;;;;;;;;;9.50;7.75;;;;;7.61;87.78;100150.75;5035121;28;47244;-73
2021/12/09 10:27:28;;;;;;;;;25.33;18.67;;;;;7.69;88.45;100144.47;5035055;28;45548;-74
2021/12/09 10:30:16;;;;;;;;;6.25;6.00;;;;;7.69;87.74;100132.22;5035831;28;45758;-75
2021/12/09 10:32:43;;;;;;;;;9.00;9.00;;;;;7.81;87.74;100145.09;5018786;28;45377;-76
2021/12/09 10:35:15;;;;;;;;;16.67;13.33;;;;;7.66;87.77;100109.56;5034636;28;45662;-73
2021/12/09 10:37:42;;;;;;;;;8.50;6.25;;;;;7.70;87.74;100123.47;5035177;28;45476;-75
2021/12/09 10:40:09;;;;;;;;;3.75;3.75;;;;;7.88;88.05;100143.19;5035180;28;45499;-75
2021/12/09 10:42:37;;;;;;;;;12.00;10.00;;;;;7.95;88.19;100136.91;5035312;28;45832;-74
2021/12/09 10:45:11;;;;;;;;;9.25;5.00;;;;;8.01;88.01;100142.00;5034861;28;46290;-74
2021/12/09 10:50:26;;;;;;;;;12.75;5.00;;;;;8.10;87.12;100121.75;5035237;28;45409;-72
2021/12/09 10:53:02;;;;;;;;;6.25;3.25;;;;;8.16;86.92;100118.97;5040911;28;45433;-73
2021/12/09 10:55:32;;;;;;;;;14.25;8.75;;;;;8.13;87.69;100119.94;5028010;28;46433;-73
2021/12/09 10:58:07;;;;;;;;;11.00;4.50;;;;;8.15;87.40;100110.25;5036570;28;45429;-72
2021/12/09 11:00:41;;;;;;;;;3.75;3.00;;;;;8.22;86.78;100116.22;5035236;28;45844;-73
2021/12/09 11:03:14;;;;;;;;;4.75;3.00;;;;;8.24;86.42;100089.97;5035006;28;45813;-73
2021/12/09 11:05:47;;;;;;;;;9.50;4.00;;;;;8.24;86.59;100085.56;5034920;28;46182;-73
2021/12/09 11:08:15;;;;;;;;;6.25;4.25;;;;;8.35;86.49;100088.81;5016909;28;45471;-72
2021/12/09 11:10:46;;;;;;;;;5.75;3.50;;;;;8.49;86.25;100093.72;5035035;28;45751;-67
2021/12/09 11:13:12;;;;;;;;;5.00;4.00;;;;;8.50;85.68;100095.47;5041732;28;45385;-74
2021/12/09 11:15:53;;;;;;;;;4.75;3.75;;;;;8.35;85.88;100078.31;5038854;28;47498;-72
2021/12/09 11:18:25;;;;;;;;;13.00;11.67;;;;;8.34;86.14;100087.06;5034156;28;45737;-73
2021/12/09 11:20:51;;;;;;;;;10.50;7.25;;;;;8.40;86.49;100093.06;5034341;28;45895;-73
2021/12/09 11:23:28;;;;;;;;;8.00;5.50;;;;;8.33;86.45;100074.84;5034516;28;45436;-72
2021/12/09 11:25:57;;;;;;;;;4.50;3.00;;;;;8.36;86.26;100081.78;5034686;28;47545;-71
2021/12/09 11:28:22;;;;;;;;;3.75;3.75;;;;;8.18;86.09;100043.75;5034239;28;45803;-72
2021/12/09 11:31:16;;;;;;;;;3.75;3.00;;;;;8.22;86.44;100058.53;5034066;28;45884;-72
2021/12/09 11:33:45;;;;;;;;;6.75;3.75;;;;;8.36;86.88;100069.56;5034847;28;45582;-74
2021/12/09 11:36:16;;;;;;;;;5.75;5.00;;;;;8.42;86.21;100065.03;5033971;28;45952;-73
2021/12/09 11:39:26;;;;;;;;;;;;;;;;;;;;;
2021/12/09 11:42:17;;;;;;;;;5.25;3.50;;;;;8.35;86.44;100046.84;5033382;28;68429;-74
2021/12/09 11:44:45;;;;;;;;;4.75;4.75;;;;;8.64;85.85;100078.50;5034522;28;45754;-72
2021/12/09 11:47:12;;;;;;;;;4.75;4.00;;;;;8.77;85.41;100071.16;5034883;28;46231;-72
2021/12/09 11:49:37;;;;;;;;;7.25;3.50;;;;;8.77;84.77;100055.44;5046183;28;45514;-73
2021/12/09 11:52:03;;;;;;;;;5.00;3.25;;;;;8.91;84.35;100060.31;5033768;28;45839;-72